createdAt,value
2023-03-25T00:00:24.107Z,11.03
2023-03-25T00:05:25.636Z,10.82
2023-03-25T00:10:27.173Z,10.64
2023-03-25T00:15:28.708Z,10.58
2023-03-25T00:20:30.271Z,10.54
2023-03-25T00:25:31.777Z,10.57
2023-03-25T00:30:33.328Z,10.75
2023-03-25T00:35:35.001Z,11.05
2023-03-25T00:40:38.860Z,10.88
2023-03-25T00:45:40.461Z,10.66
2023-03-25T00:50:42.038Z,10.77
2023-03-25T00:55:43.584Z,10.84
2023-03-25T01:00:45.183Z,10.93
2023-03-25T01:05:46.709Z,10.99
2023-03-25T01:10:48.220Z,11.03
2023-03-25T01:15:50.011Z,10.80
2023-03-25T01:20:51.698Z,10.81
2023-03-25T01:25:53.318Z,10.86
2023-03-25T01:31:04.376Z,10.92
2023-03-25T01:36:07.038Z,10.92
2023-03-25T01:41:10.279Z,10.87
2023-03-25T01:46:12.887Z,10.67
2023-03-25T01:51:18.197Z,10.28
2023-03-25T01:56:24.563Z,10.26
2023-03-25T02:01:26.401Z,10.29
2023-03-25T02:06:33.337Z,10.20
2023-03-25T02:11:35.994Z,10.22
2023-03-25T02:16:57.823Z,10.32
2023-03-25T02:22:20.063Z,10.40
2023-03-25T02:27:23.741Z,10.46
2023-03-25T02:32:56.730Z,10.44
2023-03-25T02:38:13.657Z,10.51
2023-03-25T02:43:27.125Z,10.65
2023-03-25T02:48:33.630Z,10.82
2023-03-25T02:53:37.525Z,10.85
2023-03-25T02:58:42.423Z,10.99
2023-03-25T03:03:46.107Z,11.05
2023-03-25T03:09:05.310Z,10.86
2023-03-25T03:14:25.605Z,10.75
2023-03-25T03:19:42.844Z,10.89
2023-03-25T03:24:49.578Z,10.91
2023-03-25T03:29:57.618Z,10.73
2023-03-25T03:35:05.180Z,10.64
2023-03-25T03:40:13.478Z,10.75
2023-03-25T03:45:27.679Z,10.82
2023-03-25T03:50:38.739Z,10.78
2023-03-25T03:55:55.806Z,10.77
2023-03-25T04:01:16.385Z,10.64
2023-03-25T04:06:27.127Z,10.78
2023-03-25T04:11:46.656Z,10.65
2023-03-25T04:16:48.423Z,10.64
2023-03-25T04:21:49.963Z,10.61
2023-03-25T04:26:52.768Z,10.76
2023-03-25T04:31:54.504Z,10.88
2023-03-25T04:36:58.510Z,10.76
2023-03-25T04:42:01.450Z,10.70
2023-03-25T04:47:03.278Z,10.51
2023-03-25T04:52:05.293Z,10.53
2023-03-25T04:57:07.319Z,10.54
2023-03-25T05:02:11.176Z,10.47
2023-03-25T05:07:12.918Z,10.43
2023-03-25T05:12:14.638Z,10.49
2023-03-25T05:17:18.286Z,10.59
2023-03-25T05:22:19.916Z,10.54
2023-03-25T05:27:21.936Z,10.54
2023-03-25T05:32:25.161Z,10.57
2023-03-25T05:37:27.941Z,10.39
2023-03-25T05:42:30.164Z,10.45
2023-03-25T05:47:32.146Z,10.46
2023-03-25T05:52:34.612Z,10.47
2023-03-25T05:57:37.152Z,10.38
2023-03-25T06:02:39.955Z,10.57
2023-03-25T06:07:43.711Z,10.72
2023-03-25T06:12:48.120Z,10.73
2023-03-25T06:17:49.852Z,10.70
2023-03-25T06:22:52.010Z,10.79
2023-03-25T06:27:53.886Z,10.89
2023-03-25T06:32:56.434Z,10.85
2023-03-25T06:37:58.407Z,10.77
2023-03-25T06:43:20.490Z,10.99
2023-03-25T06:48:40.983Z,11.05
2023-03-25T06:53:42.733Z,11.20
2023-03-25T06:58:44.472Z,11.00
2023-03-25T07:03:46.257Z,10.50
2023-03-25T07:08:48.960Z,10.16
2023-03-25T07:13:50.638Z,9.90
2023-03-25T07:18:52.415Z,9.73
2023-03-25T07:23:54.201Z,9.60
2023-03-25T07:28:55.746Z,9.89
2023-03-25T07:33:57.614Z,10.03
2023-03-25T07:38:59.885Z,10.13
2023-03-25T07:44:02.230Z,9.93
2023-03-25T07:49:12.668Z,9.97
2023-03-25T07:59:30.683Z,10.33
2023-03-25T08:04:32.222Z,10.67
2023-03-25T08:09:33.747Z,10.75
2023-03-25T08:14:35.284Z,10.74
2023-03-25T08:19:36.781Z,10.64
2023-03-25T08:24:38.326Z,10.71
2023-03-25T08:29:39.892Z,10.71
2023-03-25T08:34:41.455Z,11.39
2023-03-25T08:39:43.265Z,12.86
2023-03-25T08:44:44.838Z,13.73
2023-03-25T08:49:46.329Z,14.03
2023-03-25T08:54:47.825Z,13.35
2023-03-25T08:59:49.427Z,13.32
2023-03-25T09:04:51.009Z,13.13
2023-03-25T09:09:52.549Z,12.49
2023-03-25T09:14:54.024Z,12.36
2023-03-25T09:19:57.823Z,12.43
2023-03-25T09:25:00.580Z,12.83
2023-03-25T09:30:02.300Z,13.09
2023-03-25T09:35:04.363Z,13.04
2023-03-25T09:40:06.680Z,13.04
2023-03-25T09:45:23.096Z,13.86
2023-03-25T09:50:26.151Z,13.75
2023-03-25T09:55:31.402Z,14.20
2023-03-25T10:00:33.030Z,13.86
2023-03-25T10:05:40.654Z,14.33
2023-03-25T10:10:52.846Z,16.16
2023-03-25T10:16:32.829Z,14.66
2023-03-25T10:21:51.908Z,14.10
2023-03-25T10:26:57.076Z,13.82
2023-03-25T10:32:04.845Z,13.08
2023-03-25T10:37:12.113Z,13.59
2023-03-25T10:42:20.572Z,13.45
2023-03-25T10:47:30.990Z,14.36
2023-03-25T10:52:32.590Z,14.11
2023-03-25T10:57:34.335Z,13.66
2023-03-25T11:02:35.958Z,13.62
2023-03-25T11:07:40.759Z,13.51
2023-03-25T11:12:43.662Z,13.66
2023-03-25T11:17:47.985Z,13.72
2023-03-25T11:22:53.230Z,13.79
2023-03-25T11:28:11.931Z,15.08
2023-03-25T11:33:15.551Z,16.25
2023-03-25T11:38:21.974Z,15.39
2023-03-25T11:43:24.846Z,14.60
2023-03-25T11:48:31.642Z,14.32
2023-03-25T11:53:33.655Z,14.04
2023-03-25T11:58:38.770Z,15.98
2023-03-25T12:03:40.550Z,15.57
2023-03-25T12:08:43.741Z,16.26
2023-03-25T12:14:07.804Z,16.36
2023-03-25T12:19:41.312Z,15.16
2023-03-25T12:25:00.769Z,15.51
2023-03-25T12:30:24.170Z,16.89
2023-03-25T12:35:25.624Z,16.43
2023-03-25T12:40:51.938Z,16.02
2023-03-25T12:46:05.979Z,16.14
2023-03-25T12:51:16.216Z,16.23
2023-03-25T12:56:49.945Z,17.55
2023-03-25T13:02:19.926Z,16.53
2023-03-25T13:07:30.361Z,15.58
2023-03-25T13:12:43.111Z,15.76
2023-03-25T13:17:51.175Z,16.57
2023-03-25T13:22:58.388Z,15.85
2023-03-25T13:28:04.260Z,15.45
2023-03-25T13:33:16.765Z,15.70
2023-03-25T13:38:28.948Z,15.41
2023-03-25T13:43:43.683Z,15.13
2023-03-25T13:49:09.708Z,15.03
2023-03-25T13:54:17.910Z,14.56
2023-03-25T13:59:31.530Z,12.34
2023-03-25T14:05:03.911Z,11.19
2023-03-25T14:10:11.532Z,11.09
2023-03-25T14:15:20.345Z,10.76
2023-03-25T14:20:26.552Z,10.76
2023-03-25T14:25:58.883Z,11.81
2023-03-25T14:31:24.285Z,11.67
2023-03-25T14:36:30.719Z,11.86
2023-03-25T14:42:23.544Z,13.19
2023-03-25T14:47:27.058Z,13.83
2023-03-25T14:52:42.860Z,14.16
2023-03-25T14:57:45.617Z,14.69
2023-03-25T15:02:57.820Z,14.20
2023-03-25T15:08:11.733Z,14.21
2023-03-25T15:13:19.394Z,14.10
2023-03-25T15:18:36.128Z,13.84
2023-03-25T15:23:40.705Z,13.62
2023-03-25T15:28:51.549Z,13.75
2023-03-25T15:34:34.077Z,14.97
2023-03-25T15:39:47.401Z,15.43
2023-03-25T15:45:10.995Z,14.52
2023-03-25T15:50:35.346Z,14.90
2023-03-25T15:55:48.180Z,15.93
2023-03-25T16:00:54.942Z,15.96
2023-03-25T16:06:02.312Z,15.56
2023-03-25T16:11:13.982Z,15.03
2023-03-25T16:16:17.066Z,15.56
2023-03-25T16:21:19.733Z,15.42
2023-03-25T16:26:44.861Z,16.05
2023-03-25T16:31:56.938Z,15.95
2023-03-25T16:36:59.238Z,15.40
2023-03-25T16:42:04.644Z,14.78
2023-03-25T16:47:06.490Z,14.78
2023-03-25T16:52:15.655Z,14.57
2023-03-25T16:57:20.693Z,14.40
2023-03-25T17:02:31.583Z,14.38
2023-03-25T17:07:33.224Z,14.36
2023-03-25T17:12:36.322Z,14.09
2023-03-25T17:17:48.136Z,13.68
2023-03-25T17:23:40.189Z,13.37
2023-03-25T17:28:44.669Z,13.51
2023-03-25T17:33:54.177Z,13.40
2023-03-25T17:38:56.906Z,12.84
2023-03-25T17:43:58.436Z,12.69
2023-03-25T17:48:59.925Z,12.81
2023-03-25T17:54:01.422Z,12.98
2023-03-25T17:59:06.515Z,12.77
2023-03-25T18:04:11.289Z,12.62
2023-03-25T18:09:17.155Z,12.71
2023-03-25T18:14:21.135Z,12.68
2023-03-25T18:19:25.504Z,12.65
2023-03-25T18:24:27.066Z,12.75
2023-03-25T18:29:28.596Z,12.71
2023-03-25T18:34:30.095Z,12.54
2023-03-25T18:39:31.972Z,11.90
2023-03-25T18:44:33.494Z,11.44
2023-03-25T18:49:34.984Z,10.86
2023-03-25T18:54:36.535Z,10.73
2023-03-25T18:59:38.046Z,10.20
2023-03-25T19:04:47.574Z,9.99
2023-03-25T19:10:00.925Z,9.75
2023-03-25T19:15:02.544Z,9.74
2023-03-25T19:20:04.855Z,9.64
2023-03-25T19:25:06.686Z,9.67
2023-03-25T19:30:12.205Z,9.60
2023-03-25T19:35:15.538Z,9.69
2023-03-25T19:40:28.268Z,9.97
2023-03-25T19:45:32.831Z,9.89
2023-03-25T19:50:34.795Z,10.01
2023-03-25T19:55:36.309Z,10.27
2023-03-25T20:00:38.173Z,10.38
2023-03-25T20:05:40.186Z,10.42
2023-03-25T20:10:41.686Z,10.56
2023-03-25T20:15:43.233Z,10.70
2023-03-25T20:20:44.789Z,11.05
2023-03-25T20:25:46.309Z,11.32
2023-03-25T20:30:47.804Z,11.43
2023-03-25T20:35:50.578Z,11.46
2023-03-25T20:40:53.347Z,11.43
2023-03-25T20:45:56.011Z,11.54
2023-03-25T20:51:02.368Z,11.72
2023-03-25T20:56:04.137Z,11.76
2023-03-25T21:01:05.750Z,11.93
2023-03-25T21:06:16.811Z,11.86
2023-03-25T21:11:25.064Z,12.08
2023-03-25T21:16:26.601Z,12.14
2023-03-25T21:21:29.527Z,12.15
2023-03-25T21:26:31.572Z,12.06
2023-03-25T21:31:33.131Z,12.02
2023-03-25T21:36:34.740Z,12.11
2023-03-25T21:41:36.471Z,12.18
2023-03-25T21:46:37.994Z,12.17
2023-03-25T21:51:39.667Z,12.14
2023-03-25T21:56:41.543Z,12.00
2023-03-25T22:01:43.262Z,11.94
2023-03-25T22:06:45.227Z,11.87
2023-03-25T22:11:46.985Z,11.87
2023-03-25T22:16:49.196Z,11.79
2023-03-25T22:21:51.755Z,11.85
2023-03-25T22:26:53.331Z,12.01
2023-03-25T22:31:55.171Z,11.80
2023-03-25T22:36:56.825Z,11.84
2023-03-25T22:41:58.887Z,11.84
2023-03-25T22:47:00.838Z,11.92
2023-03-25T22:52:02.719Z,11.91
2023-03-25T22:57:04.606Z,11.90
2023-03-25T23:02:06.764Z,11.98
2023-03-25T23:07:08.918Z,11.80
2023-03-25T23:12:16.238Z,11.89
2023-03-25T23:17:18.514Z,11.88
2023-03-25T23:22:20.917Z,11.78
2023-03-25T23:27:22.726Z,11.78
2023-03-25T23:32:24.877Z,11.70
2023-03-25T23:37:26.784Z,11.78
2023-03-25T23:42:34.815Z,11.74
2023-03-25T23:47:37.368Z,11.69
2023-03-25T23:52:38.925Z,11.72
2023-03-25T23:57:41.042Z,11.85
